Time;durP1;ratioP1;P1;durP2;ratioP2;P2;SDS_P1;SDS_P2;PMS_P1;PMS_P2;Temp;Humidity;BMP_temperature;BMP_pressure;BME280_temperature;BME280_humidity;BME280_pressure;Samples;Min_cycle;Max_cycle;Signal;HPM_P1;HPM_P2
2022/04/09 00:01:19;;;;;;;;;;;22.10;52.30;;;;;;5094236;28;19956;-44
2022/04/09 00:03:46;;;;;;;;;;;22.10;52.20;;;;;;5093847;28;19924;-44
2022/04/09 00:06:13;;;;;;;;;;;22.10;52.20;;;;;;5075387;28;20343;-44
2022/04/09 00:08:40;;;;;;;;;;;22.10;52.20;;;;;;5093220;28;19971;-44
2022/04/09 00:11:08;;;;;;;;;;;22.10;52.20;;;;;;5093763;28;20432;-45
2022/04/09 00:13:36;;;;;;;;;;;22.10;52.20;;;;;;5094092;28;20348;-44
2022/04/09 00:16:03;;;;;;;;;;;22.10;52.20;;;;;;5093614;28;19970;-44
2022/04/09 00:18:30;;;;;;;;;;;22.10;52.20;;;;;;5093952;28;20345;-45
2022/04/09 00:20:57;;;;;;;;;;;22.10;52.20;;;;;;5093512;28;20015;-46
2022/04/09 00:23:24;;;;;;;;;;;22.10;52.20;;;;;;5092606;28;19924;-45
2022/04/09 00:25:51;;;;;;;;;;;22.10;52.20;;;;;;5093565;28;19928;-47
2022/04/09 00:28:18;;;;;;;;;;;22.10;52.20;;;;;;5093542;28;19931;-46
2022/04/09 00:30:44;;;;;;;;;;;22.10;52.20;;;;;;5075801;28;19924;-47
2022/04/09 00:33:11;;;;;;;;;;;22.10;52.20;;;;;;5093817;28;19947;-44
2022/04/09 00:35:39;;;;;;;;;;;22.00;52.20;;;;;;5093842;28;20027;-48
2022/04/09 00:38:06;;;;;;;;;;;22.10;52.20;;;;;;5074899;28;20031;-44
2022/04/09 00:40:32;;;;;;;;;;;22.10;52.20;;;;;;5093750;28;19924;-49
2022/04/09 00:42:59;;;;;;;;;;;22.10;52.20;;;;;;5093625;28;20424;-46
2022/04/09 00:45:26;;;;;;;;;;;22.10;52.20;;;;;;5093295;28;19974;-44
2022/04/09 00:47:54;;;;;;;;;;;22.10;52.80;;;;;;5093373;28;19982;-43
2022/04/09 00:50:21;;;;;;;;;;;22.10;52.20;;;;;;5093635;28;19924;-44
2022/04/09 00:52:49;;;;;;;;;;;22.00;52.20;;;;;;5091660;28;19928;-44
2022/04/09 00:56:12;;;;;;;;;;;22.00;52.20;;;;;;5093696;28;19924;-46
2022/04/09 00:58:14;;;;;;;;;;;22.10;52.20;;;;;;5093495;28;19970;-44
2022/04/09 01:00:42;;;;;;;;;;;22.00;52.20;;;;;;5093415;28;20380;-47
2022/04/09 01:03:11;;;;;;;;;;;22.00;52.20;;;;;;5093647;28;19968;-46
2022/04/09 01:05:40;;;;;;;;;;;22.00;52.20;;;;;;5093229;28;19971;-49
2022/04/09 01:08:07;;;;;;;;;;;22.00;52.20;;;;;;5092688;28;19970;-44
2022/04/09 01:10:34;;;;;;;;;;;22.00;52.20;;;;;;5093095;28;20445;-49
2022/04/09 01:13:01;;;;;;;;;;;22.00;52.20;;;;;;5093497;28;20333;-44
2022/04/09 01:15:28;;;;;;;;;;;22.00;52.20;;;;;;5075670;28;20293;-45
2022/04/09 01:17:55;;;;;;;;;;;22.00;52.20;;;;;;5095053;28;20007;-44
2022/04/09 01:20:24;;;;;;;;;;;22.00;52.20;;;;;;5096672;28;19975;-48
2022/04/09 01:22:52;;;;;;;;;;;22.00;52.20;;;;;;5095851;28;19928;-47
2022/04/09 01:25:19;;;;;;;;;;;22.00;52.20;;;;;;5079035;28;19924;-46
2022/04/09 01:27:47;;;;;;;;;;;22.00;52.20;;;;;;5096936;28;20299;-48
2022/04/09 01:30:14;;;;;;;;;;;22.00;52.20;;;;;;5096844;28;20007;-44
2022/04/09 01:32:41;;;;;;;;;;;22.00;52.20;;;;;;5095435;28;19963;-44
2022/04/09 01:35:08;;;;;;;;;;;22.00;52.20;;;;;;5096848;28;19994;-49
2022/04/09 01:37:36;;;;;;;;;;;22.00;52.20;;;;;;5096797;28;20344;-48
2022/04/09 01:40:03;;;;;;;;;;;22.00;52.20;;;;;;5095481;28;20372;-52
2022/04/09 01:42:30;;;;;;;;;;;22.00;52.20;;;;;;5078426;28;19924;-50
2022/04/09 01:44:59;;;;;;;;;;;22.00;52.10;;;;;;5096275;28;19930;-47
2022/04/09 01:47:26;;;;;;;;;;;22.00;52.10;;;;;;5096578;28;20299;-46
2022/04/09 01:49:53;;;;;;;;;;;22.00;52.10;;;;;;5095344;28;19924;-44
2022/04/09 01:52:20;;;;;;;;;;;22.00;52.10;;;;;;5078364;28;19942;-44
2022/04/09 01:54:47;;;;;;;;;;;22.00;52.10;;;;;;5095547;28;20338;-44
2022/04/09 01:57:15;;;;;;;;;;;22.00;52.10;;;;;;5096438;28;19969;-44
2022/04/09 01:59:46;;;;;;;;;;;22.00;52.10;;;;;;5096044;28;19928;-44
2022/04/09 02:02:13;;;;;;;;;;;22.00;52.10;;;;;;5096369;28;20298;-44
2022/04/09 02:04:40;;;;;;;;;;;22.00;52.70;;;;;;5096233;28;19924;-44
2022/04/09 02:07:07;;;;;;;;;;;22.00;52.10;;;;;;5095776;28;19967;-44
2022/04/09 02:09:34;;;;;;;;;;;22.00;52.10;;;;;;5095009;28;19977;-44
2022/04/09 02:12:01;;;;;;;;;;;22.00;52.10;;;;;;5095736;28;19928;-44
2022/04/09 02:14:27;;;;;;;;;;;22.00;52.10;;;;;;5095699;28;20354;-44
2022/04/09 02:16:54;;;;;;;;;;;22.00;52.10;;;;;;5095947;28;19970;-44
2022/04/09 02:19:21;;;;;;;;;;;22.00;52.10;;;;;;5095668;28;19967;-44
2022/04/09 02:21:48;;;;;;;;;;;22.00;52.00;;;;;;5095500;28;19924;-44
2022/04/09 02:24:16;;;;;;;;;;;22.00;52.10;;;;;;5094655;28;20333;-44
2022/04/09 02:26:43;;;;;;;;;;;22.00;52.10;;;;;;5095458;28;19937;-44
2022/04/09 02:29:10;;;;;;;;;;;21.90;52.00;;;;;;5094718;28;19930;-44
2022/04/09 02:31:37;;;;;;;;;;;22.00;52.10;;;;;;5095428;28;19959;-44
2022/04/09 02:34:05;;;;;;;;;;;22.00;52.10;;;;;;5095613;28;19924;-44
2022/04/09 02:36:32;;;;;;;;;;;22.00;52.10;;;;;;5095618;28;19981;-44
2022/04/09 02:38:59;;;;;;;;;;;22.00;52.00;;;;;;5094360;28;19932;-44
2022/04/09 02:41:28;;;;;;;;;;;22.00;52.00;;;;;;5077305;28;19971;-44
2022/04/09 02:43:55;;;;;;;;;;;22.00;52.00;;;;;;5095158;28;20429;-45
2022/04/09 02:46:22;;;;;;;;;;;22.00;52.00;;;;;;5095024;28;19981;-44
2022/04/09 02:48:49;;;;;;;;;;;22.00;52.00;;;;;;5095371;28;19925;-44
2022/04/09 02:51:16;;;;;;;;;;;22.00;52.00;;;;;;5094859;28;19924;-43
2022/04/09 02:53:44;;;;;;;;;;;22.00;52.00;;;;;;5094065;28;19924;-45
2022/04/09 02:56:11;;;;;;;;;;;22.00;52.00;;;;;;5074978;28;19966;-44
2022/04/09 02:58:38;;;;;;;;;;;22.00;52.00;;;;;;5074576;28;19963;-46
2022/04/09 03:01:06;;;;;;;;;;;22.00;52.00;;;;;;5057228;28;19986;-44
2022/04/09 03:03:33;;;;;;;;;;;22.00;52.00;;;;;;5074432;28;19925;-44
2022/04/09 03:06:00;;;;;;;;;;;22.00;52.60;;;;;;5074977;28;19928;-44
2022/04/09 03:08:27;;;;;;;;;;;22.00;52.00;;;;;;5075117;28;20016;-44
2022/04/09 03:10:54;;;;;;;;;;;22.00;52.00;;;;;;5091433;28;19977;-44
2022/04/09 03:13:22;;;;;;;;;;;22.00;52.00;;;;;;5094959;28;19970;-44
2022/04/09 03:15:49;;;;;;;;;;;22.00;52.00;;;;;;5094592;28;20399;-44
2022/04/09 03:18:16;;;;;;;;;;;22.00;52.00;;;;;;5094856;28;19928;-44
2022/04/09 03:20:43;;;;;;;;;;;22.00;52.00;;;;;;5094409;28;19970;-46
2022/04/09 03:23:10;;;;;;;;;;;22.00;52.00;;;;;;5093664;28;20330;-44
2022/04/09 03:25:37;;;;;;;;;;;22.00;51.90;;;;;;5093866;28;20448;-44
2022/04/09 03:28:04;;;;;;;;;;;22.00;51.90;;;;;;5094390;28;19955;-44
2022/04/09 03:30:31;;;;;;;;;;;22.00;51.90;;;;;;5094656;28;20352;-45
2022/04/09 03:32:58;;;;;;;;;;;22.00;51.90;;;;;;5094300;28;19971;-45
2022/04/09 03:35:25;;;;;;;;;;;22.00;52.00;;;;;;5094258;28;20387;-44
2022/04/09 03:37:52;;;;;;;;;;;22.00;52.00;;;;;;5094168;28;19971;-44
2022/04/09 03:40:19;;;;;;;;;;;22.00;51.90;;;;;;5092988;28;19924;-44
2022/04/09 03:42:46;;;;;;;;;;;22.00;51.90;;;;;;5094337;28;19963;-43
2022/04/09 03:45:13;;;;;;;;;;;22.00;51.90;;;;;;5094375;28;20337;-43
2022/04/09 03:47:40;;;;;;;;;;;22.00;51.90;;;;;;5094423;28;19928;-44
2022/04/09 03:50:07;;;;;;;;;;;22.00;51.90;;;;;;5076519;28;19987;-44
2022/04/09 03:52:34;;;;;;;;;;;22.00;51.90;;;;;;5076098;28;19924;-44
2022/04/09 03:55:01;;;;;;;;;;;22.00;51.90;;;;;;5093383;28;20015;-44
2022/04/09 03:57:28;;;;;;;;;;;22.00;52.50;;;;;;5093886;28;20417;-44
2022/04/09 03:59:57;;;;;;;;;;;22.00;51.90;;;;;;5093915;28;19931;-46
2022/04/09 04:02:24;;;;;;;;;;;22.00;51.90;;;;;;5093758;28;19924;-45
2022/04/09 04:04:51;;;;;;;;;;;22.00;51.90;;;;;;5094048;28;20324;-44
2022/04/09 04:07:22;;;;;;;;;;;22.00;51.80;;;;;;5065837;28;20348;-44
2022/04/09 04:09:50;;;;;;;;;;;22.00;51.80;;;;;;5077088;28;20296;-44
2022/04/09 04:12:18;;;;;;;;;;;22.00;52.40;;;;;;5093719;28;20437;-44
2022/04/09 04:14:46;;;;;;;;;;;22.00;51.80;;;;;;5093830;28;19924;-44
2022/04/09 04:17:13;;;;;;;;;;;22.00;51.80;;;;;;5094049;28;19928;-44
2022/04/09 04:19:40;;;;;;;;;;;22.00;51.80;;;;;;5093735;28;20488;-46
2022/04/09 04:22:08;;;;;;;;;;;22.00;51.80;;;;;;5093766;28;19930;-46
2022/04/09 04:24:38;;;;;;;;;;;22.00;51.80;;;;;;5093744;28;19924;-44
2022/04/09 04:27:05;;;;;;;;;;;22.00;51.80;;;;;;5055646;28;19947;-45
2022/04/09 04:29:32;;;;;;;;;;;22.00;51.80;;;;;;5073307;28;20383;-44
2022/04/09 04:32:00;;;;;;;;;;;22.00;51.80;;;;;;5073657;28;20346;-44
2022/04/09 04:34:27;;;;;;;;;;;22.00;51.70;;;;;;5073402;28;20400;-48
2022/04/09 04:36:53;;;;;;;;;;;22.00;51.70;;;;;;5073244;28;19968;-44
2022/04/09 04:39:20;;;;;;;;;;;22.00;51.60;;;;;;5092992;28;20022;-46
2022/04/09 04:41:47;;;;;;;;;;;22.00;51.60;;;;;;5092869;28;19994;-47
2022/04/09 04:44:15;;;;;;;;;;;22.00;51.70;;;;;;5093814;28;19924;-46
2022/04/09 04:46:42;;;;;;;;;;;22.00;51.70;;;;;;5093447;28;20022;-45
2022/04/09 04:49:09;;;;;;;;;;;22.00;51.70;;;;;;5093479;28;19935;-44
2022/04/09 04:51:36;;;;;;;;;;;22.00;51.60;;;;;;5093608;28;20014;-44
2022/04/09 04:54:03;;;;;;;;;;;22.00;51.70;;;;;;5086190;28;19936;-47
2022/04/09 04:56:30;;;;;;;;;;;22.00;51.60;;;;;;5090479;28;20253;-44
2022/04/09 04:58:57;;;;;;;;;;;22.00;51.60;;;;;;5079341;28;19970;-48
2022/04/09 05:01:24;;;;;;;;;;;22.00;51.60;;;;;;5097154;28;19924;-45
2022/04/09 05:03:53;;;;;;;;;;;22.00;51.60;;;;;;5097117;28;19925;-44
2022/04/09 05:06:20;;;;;;;;;;;22.00;51.60;;;;;;5097352;28;19925;-49
2022/04/09 05:08:47;;;;;;;;;;;22.00;51.60;;;;;;5097325;28;19928;-47
2022/04/09 05:11:14;;;;;;;;;;;22.00;51.50;;;;;;5077476;28;19931;-43
2022/04/09 05:13:41;;;;;;;;;;;22.00;51.60;;;;;;5097214;28;19928;-44
2022/04/09 05:16:08;;;;;;;;;;;22.00;51.50;;;;;;5097194;28;19971;-45
2022/04/09 05:18:35;;;;;;;;;;;22.00;51.50;;;;;;5097141;28;19975;-45
2022/04/09 05:21:02;;;;;;;;;;;22.00;52.20;;;;;;5097000;28;20043;-47
2022/04/09 05:23:29;;;;;;;;;;;22.00;51.60;;;;;;5078687;28;19930;-44
2022/04/09 05:25:57;;;;;;;;;;;22.00;51.50;;;;;;5095766;28;20019;-44
2022/04/09 05:28:25;;;;;;;;;;;22.00;51.80;;;;;;5096653;28;19932;-45
2022/04/09 05:30:52;;;;;;;;;;;22.00;51.50;;;;;;5096822;28;19924;-44
2022/04/09 05:33:19;;;;;;;;;;;22.00;51.50;;;;;;5096823;28;20276;-44
2022/04/09 05:35:46;;;;;;;;;;;22.00;51.50;;;;;;5096402;28;19924;-47
2022/04/09 05:38:13;;;;;;;;;;;22.00;51.50;;;;;;5096743;28;19967;-45
2022/04/09 05:40:42;;;;;;;;;;;22.00;51.50;;;;;;5095576;28;19928;-45
2022/04/09 05:43:09;;;;;;;;;;;22.00;51.50;;;;;;5079206;28;20003;-46
2022/04/09 05:45:36;;;;;;;;;;;22.00;51.50;;;;;;5096564;28;19969;-44
2022/04/09 05:48:03;;;;;;;;;;;22.00;51.60;;;;;;5095331;28;19924;-47
2022/04/09 05:50:31;;;;;;;;;;;22.00;51.50;;;;;;5096471;28;19933;-47
2022/04/09 05:52:57;;;;;;;;;;;22.00;51.50;;;;;;5096522;28;19966;-45
2022/04/09 05:55:24;;;;;;;;;;;22.00;51.60;;;;;;5096394;28;20268;-46
2022/04/09 05:57:51;;;;;;;;;;;22.00;51.50;;;;;;5095686;28;19931;-44
2022/04/09 06:00:19;;;;;;;;;;;22.00;52.20;;;;;;5096071;28;19946;-44
2022/04/09 06:02:46;;;;;;;;;;;22.00;51.60;;;;;;5096301;28;19963;-45
2022/04/09 06:05:13;;;;;;;;;;;22.00;51.60;;;;;;5095728;28;19928;-44
2022/04/09 06:07:39;;;;;;;;;;;22.00;51.60;;;;;;5078311;28;20330;-44
2022/04/09 06:10:08;;;;;;;;;;;22.00;51.60;;;;;;5096159;28;19977;-45
2022/04/09 06:12:35;;;;;;;;;;;22.00;52.30;;;;;;5094783;28;20377;-44
2022/04/09 06:15:03;;;;;;;;;;;22.00;51.60;;;;;;5095771;28;19924;-44
2022/04/09 06:17:31;;;;;;;;;;;22.00;51.60;;;;;;5095743;28;19924;-44
2022/04/09 06:19:58;;;;;;;;;;;22.00;51.70;;;;;;5095599;28;19924;-44
2022/04/09 06:22:24;;;;;;;;;;;22.00;51.60;;;;;;5095442;28;19971;-46
2022/04/09 06:24:51;;;;;;;;;;;21.90;51.60;;;;;;5095361;28;20326;-44
2022/04/09 06:27:18;;;;;;;;;;;21.90;51.60;;;;;;5094303;28;19925;-45
2022/04/09 06:29:45;;;;;;;;;;;21.90;51.60;;;;;;5095825;28;19970;-44
2022/04/09 06:32:12;;;;;;;;;;;21.90;51.60;;;;;;5095744;28;20355;-45
2022/04/09 06:34:40;;;;;;;;;;;21.90;51.60;;;;;;5095320;28;19924;-47
2022/04/09 06:37:07;;;;;;;;;;;21.90;51.60;;;;;;5095625;28;19924;-49
2022/04/09 06:39:36;;;;;;;;;;;21.90;51.60;;;;;;5095257;28;19932;-45
2022/04/09 06:42:03;;;;;;;;;;;21.90;51.60;;;;;;5094513;28;19931;-44
2022/04/09 06:44:30;;;;;;;;;;;21.90;51.70;;;;;;5094867;28;19977;-45
2022/04/09 06:46:57;;;;;;;;;;;21.90;51.60;;;;;;5095354;28;19924;-44
2022/04/09 06:49:24;;;;;;;;;;;21.90;51.70;;;;;;5095121;28;19975;-45
2022/04/09 06:51:50;;;;;;;;;;;21.90;51.70;;;;;;5095001;28;20012;-44
2022/04/09 06:54:18;;;;;;;;;;;21.90;51.60;;;;;;5095013;28;19975;-44
2022/04/09 06:56:45;;;;;;;;;;;21.90;51.60;;;;;;5094326;28;20008;-44
2022/04/09 06:59:12;;;;;;;;;;;21.90;51.60;;;;;;5095261;28;20307;-44
2022/04/09 07:01:39;;;;;;;;;;;21.90;51.70;;;;;;5077006;28;20003;-44
2022/04/09 07:04:06;;;;;;;;;;;21.90;51.70;;;;;;5093670;28;20014;-44
2022/04/09 07:06:33;;;;;;;;;;;21.90;51.60;;;;;;5096132;28;19974;-44
2022/04/09 07:09:00;;;;;;;;;;;21.90;51.60;;;;;;5094976;28;19924;-45
2022/04/09 07:11:27;;;;;;;;;;;21.90;51.60;;;;;;5093986;28;19924;-44
2022/04/09 07:13:54;;;;;;;;;;;21.90;51.60;;;;;;5094898;28;19930;-44
2022/04/09 07:16:21;;;;;;;;;;;21.90;51.60;;;;;;5094129;28;19924;-44
2022/04/09 07:18:48;;;;;;;;;;;21.90;51.60;;;;;;5094569;28;19924;-45
2022/04/09 07:21:15;;;;;;;;;;;21.90;51.60;;;;;;5076765;28;19974;-44
2022/04/09 07:23:42;;;;;;;;;;;21.90;51.60;;;;;;5080123;28;20393;-45
2022/04/09 07:26:09;;;;;;;;;;;21.90;51.60;;;;;;5074018;28;19924;-45
2022/04/09 07:28:36;;;;;;;;;;;21.90;51.50;;;;;;5074083;28;19924;-44
2022/04/09 07:31:03;;;;;;;;;;;21.90;51.60;;;;;;5094366;28;20417;-45
2022/04/09 07:33:30;;;;;;;;;;;21.90;51.60;;;;;;5094564;28;19924;-44
2022/04/09 07:35:57;;;;;;;;;;;21.90;51.60;;;;;;5094311;28;19979;-46
2022/04/09 07:38:24;;;;;;;;;;;21.90;51.50;;;;;;5094267;28;20023;-44
2022/04/09 07:40:51;;;;;;;;;;;21.90;51.50;;;;;;5094655;28;19924;-44
2022/04/09 07:43:18;;;;;;;;;;;21.90;51.60;;;;;;5093597;28;20019;-45
2022/04/09 07:45:45;;;;;;;;;;;21.90;51.50;;;;;;5076514;28;19924;-44
2022/04/09 07:48:12;;;;;;;;;;;21.90;51.60;;;;;;5094377;28;20292;-44
2022/04/09 07:50:39;;;;;;;;;;;21.90;51.50;;;;;;5093970;28;19925;-44
2022/04/09 07:53:11;;;;;;;;;;;21.90;51.50;;;;;;5094023;28;20299;-44
2022/04/09 07:55:38;;;;;;;;;;;21.90;51.50;;;;;;5094278;28;19954;-45
2022/04/09 07:58:05;;;;;;;;;;;21.90;51.40;;;;;;5075262;28;19974;-47
2022/04/09 08:00:33;;;;;;;;;;;22.00;51.50;;;;;;5094258;28;19969;-45
2022/04/09 08:03:00;;;;;;;;;;;22.00;51.50;;;;;;5094222;28;19967;-44
2022/04/09 08:05:27;;;;;;;;;;;22.00;51.40;;;;;;5093818;28;20391;-45
2022/04/09 08:07:54;;;;;;;;;;;22.00;51.40;;;;;;5093729;28;20411;-49
2022/04/09 08:10:21;;;;;;;;;;;22.00;51.30;;;;;;5075759;28;19973;-44
2022/04/09 08:12:51;;;;;;;;;;;22.00;51.30;;;;;;5075103;28;19924;-44
2022/04/09 08:15:18;;;;;;;;;;;22.00;51.30;;;;;;5094061;28;19924;-44
2022/04/09 08:17:48;;;;;;;;;;;22.00;51.20;;;;;;5094316;28;19998;-45
2022/04/09 08:20:18;;;;;;;;;;;22.10;51.30;;;;;;5094015;28;19960;-45
2022/04/09 08:22:46;;;;;;;;;;;22.10;51.20;;;;;;5093878;28;19970;-44
2022/04/09 08:25:13;;;;;;;;;;;22.10;51.20;;;;;;5075863;28;19924;-44
2022/04/09 08:27:40;;;;;;;;;;;22.10;51.10;;;;;;5094680;28;19924;-44
2022/04/09 08:30:07;;;;;;;;;;;22.10;51.10;;;;;;5063528;28;19977;-47
2022/04/09 08:32:34;;;;;;;;;;;22.10;51.00;;;;;;5080206;28;19981;-45
2022/04/09 08:35:03;;;;;;;;;;;22.10;51.60;;;;;;5097701;28;19924;-45
2022/04/09 08:37:30;;;;;;;;;;;22.10;50.90;;;;;;5097995;28;20341;-45
2022/04/09 08:39:56;;;;;;;;;;;22.20;51.00;;;;;;5097659;28;19924;-45
2022/04/09 08:42:25;;;;;;;;;;;22.20;51.00;;;;;;5078686;28;19980;-46
2022/04/09 08:44:52;;;;;;;;;;;22.20;51.00;;;;;;5097857;28;19985;-46
2022/04/09 08:47:19;;;;;;;;;;;22.20;51.00;;;;;;5097392;28;19979;-45
2022/04/09 08:49:47;;;;;;;;;;;22.20;51.00;;;;;;5097397;28;19924;-44
2022/04/09 08:52:15;;;;;;;;;;;22.20;50.90;;;;;;5097583;28;20027;-44
2022/04/09 08:54:42;;;;;;;;;;;22.20;50.90;;;;;;5097571;28;20003;-45
2022/04/09 08:57:10;;;;;;;;;;;22.20;50.80;;;;;;5097342;28;19932;-44
2022/04/09 08:59:37;;;;;;;;;;;22.20;50.80;;;;;;5096664;28;20007;-50
2022/04/09 09:02:04;;;;;;;;;;;22.20;50.80;;;;;;5098033;28;19982;-44
2022/04/09 09:04:32;;;;;;;;;;;22.30;50.90;;;;;;5097156;28;19978;-46
2022/04/09 09:07:18;;;;;;;;;;;22.30;50.80;;;;;;5097348;28;20014;-45
2022/04/09 09:09:45;;;;;;;;;;;22.30;50.80;;;;;;5097286;28;20016;-44
2022/04/09 09:12:15;;;;;;;;;;;22.30;50.80;;;;;;5097235;28;19974;-45
2022/04/09 09:14:44;;;;;;;;;;;22.30;50.70;;;;;;5096073;28;19923;-44
2022/04/09 09:17:11;;;;;;;;;;;22.30;50.70;;;;;;5097260;28;20015;-48
2022/04/09 09:19:39;;;;;;;;;;;22.40;50.80;;;;;;5097201;28;19973;-44
2022/04/09 09:22:06;;;;;;;;;;;22.40;50.80;;;;;;5096738;28;19985;-46
2022/04/09 09:24:33;;;;;;;;;;;22.40;50.70;;;;;;5095630;28;19930;-44
2022/04/09 09:27:01;;;;;;;;;;;22.40;50.60;;;;;;5095779;28;19993;-45
2022/04/09 09:29:29;;;;;;;;;;;22.40;50.60;;;;;;5080316;28;20384;-45
2022/04/09 09:31:58;;;;;;;;;;;22.50;50.60;;;;;;5075259;28;20336;-44
2022/04/09 09:34:26;;;;;;;;;;;22.50;50.50;;;;;;5075202;28;19924;-44
2022/04/09 09:36:52;;;;;;;;;;;22.50;50.40;;;;;;5076305;28;19950;-44
2022/04/09 09:39:20;;;;;;;;;;;22.60;50.40;;;;;;5074984;28;20406;-45
2022/04/09 09:41:55;;;;;;;;;;;22.60;50.30;;;;;;5075344;28;19925;-44
2022/04/09 09:44:26;;;;;;;;;;;22.70;50.30;;;;;;5087063;28;19924;-49
2022/04/09 09:46:54;;;;;;;;;;;22.70;50.10;;;;;;5095105;28;20410;-46
2022/04/09 09:49:25;;;;;;;;;;;22.70;50.00;;;;;;5095189;28;20010;-46
2022/04/09 09:52:06;;;;;;;;;;;22.80;50.00;;;;;;5095078;28;20019;-44
2022/04/09 09:54:33;;;;;;;;;;;22.80;50.00;;;;;;5095091;28;19924;-45
2022/04/09 09:57:00;;;;;;;;;;;22.80;49.90;;;;;;5095009;28;20383;-45
2022/04/09 09:59:28;;;;;;;;;;;22.80;49.90;;;;;;5094125;28;20023;-44
2022/04/09 10:01:55;;;;;;;;;;;22.80;49.80;;;;;;5094999;28;20006;-44
2022/04/09 10:04:23;;;;;;;;;;;22.80;49.80;;;;;;5077458;28;19931;-47
2022/04/09 10:06:50;;;;;;;;;;;22.80;49.80;;;;;;5095151;28;19971;-44
2022/04/09 10:09:19;;;;;;;;;;;22.80;49.80;;;;;;5094905;28;20407;-45
2022/04/09 10:11:50;;;;;;;;;;;22.90;49.80;;;;;;5094741;28;19924;-45
2022/04/09 10:14:24;;;;;;;;;;;22.90;49.70;;;;;;5094283;28;20383;-44
2022/04/09 10:16:52;;;;;;;;;;;23.00;49.70;;;;;;5095116;28;19966;-45
2022/04/09 10:19:22;;;;;;;;;;;23.00;49.60;;;;;;5094745;28;19967;-50
2022/04/09 10:21:51;;;;;;;;;;;23.00;49.50;;;;;;5076650;28;19974;-49
2022/04/09 10:24:32;;;;;;;;;;;23.00;49.40;;;;;;5091376;28;19917;-44
2022/04/09 10:27:02;;;;;;;;;;;23.10;49.40;;;;;;5091591;28;20058;-44
2022/04/09 10:29:45;;;;;;;;;;;23.10;49.40;;;;;;5090276;28;19924;-49
2022/04/09 10:32:12;;;;;;;;;;;23.10;49.40;;;;;;5091191;28;19974;-44
2022/04/09 10:34:50;;;;;;;;;;;23.10;49.40;;;;;;5090630;28;19924;-44
2022/04/09 10:37:18;;;;;;;;;;;23.10;49.40;;;;;;5070831;28;19925;-44
2022/04/09 10:39:46;;;;;;;;;;;23.10;49.50;;;;;;5103121;28;19931;-49
2022/04/09 10:42:31;;;;;;;;;;;23.10;49.50;;;;;;5070606;28;19951;-44
2022/04/09 10:44:58;;;;;;;;;;;23.00;49.50;;;;;;5114514;28;20269;-45
2022/04/09 10:47:25;;;;;;;;;;;23.00;49.50;;;;;;5090873;28;19924;-45
2022/04/09 10:50:00;;;;;;;;;;;23.00;49.60;;;;;;5090754;28;20453;-44
2022/04/09 10:52:34;;;;;;;;;;;23.00;49.50;;;;;;5090700;28;20435;-45
2022/04/09 10:55:04;;;;;;;;;;;23.00;49.50;;;;;;5090729;28;19972;-47
2022/04/09 10:57:45;;;;;;;;;;;23.00;49.50;;;;;;5090987;28;19986;-46
2022/04/09 11:00:20;;;;;;;;;;;23.00;49.50;;;;;;5090056;28;19928;-44
2022/04/09 11:03:23;;;;;;;;;;;23.00;49.60;;;;;;5090525;28;19924;-44
2022/04/09 11:05:50;;;;;;;;;;;23.00;49.50;;;;;;5108727;28;19972;-47
2022/04/09 11:08:20;;;;;;;;;;;23.00;49.50;;;;;;5109017;28;19924;-47
2022/04/09 11:10:47;;;;;;;;;;;23.10;49.60;;;;;;5108680;28;20410;-46
2022/04/09 11:13:14;;;;;;;;;;;23.10;49.60;;;;;;5108750;28;19924;-44
2022/04/09 11:15:44;;;;;;;;;;;23.10;49.50;;;;;;5107709;28;19928;-45
2022/04/09 11:18:11;;;;;;;;;;;23.10;49.50;;;;;;5108861;28;19924;-45
2022/04/09 11:20:38;;;;;;;;;;;23.10;49.50;;;;;;5108596;28;19970;-47
2022/04/09 11:23:09;;;;;;;;;;;23.10;49.50;;;;;;5108242;28;19924;-48
2022/04/09 11:25:39;;;;;;;;;;;23.10;49.50;;;;;;5108447;28;19946;-45
2022/04/09 11:28:08;;;;;;;;;;;23.10;49.60;;;;;;5108656;28;19985;-45
2022/04/09 11:30:35;;;;;;;;;;;23.10;49.60;;;;;;5107429;28;20311;-46
2022/04/09 11:33:02;;;;;;;;;;;23.10;49.50;;;;;;5108376;28;19928;-51
2022/04/09 11:35:35;;;;;;;;;;;23.10;49.60;;;;;;5080031;28;19924;-44
2022/04/09 11:38:08;;;;;;;;;;;23.10;49.60;;;;;;5094612;28;19964;-43
2022/04/09 11:40:36;;;;;;;;;;;23.10;49.60;;;;;;5079863;28;19924;-44
2022/04/09 11:43:03;;;;;;;;;;;23.10;49.60;;;;;;5076229;28;19984;-44
2022/04/09 11:45:31;;;;;;;;;;;23.10;49.50;;;;;;5074438;28;19928;-43
2022/04/09 11:48:00;;;;;;;;;;;23.10;49.50;;;;;;5076487;28;19925;-44
2022/04/09 11:50:31;;;;;;;;;;;23.20;49.40;;;;;;5075245;28;19925;-43
2022/04/09 11:53:16;;;;;;;;;;;23.20;49.40;;;;;;5076138;28;20011;-43
2022/04/09 11:55:44;;;;;;;;;;;23.20;49.30;;;;;;5076450;28;19925;-44
2022/04/09 11:58:15;;;;;;;;;;;23.30;49.30;;;;;;5076314;28;20342;-44
2022/04/09 12:00:46;;;;;;;;;;;23.30;49.20;;;;;;5075068;28;19928;-43
2022/04/09 12:03:14;;;;;;;;;;;23.30;49.20;;;;;;5075933;28;19924;-43
2022/04/09 12:05:48;;;;;;;;;;;23.30;49.20;;;;;;5075934;28;19929;-44
2022/04/09 12:08:17;;;;;;;;;;;23.30;49.10;;;;;;5076214;28;20346;-45
2022/04/09 12:10:54;;;;;;;;;;;23.40;49.20;;;;;;5075727;28;20023;-44
2022/04/09 12:13:35;;;;;;;;;;;23.40;49.20;;;;;;5076085;28;20019;-43
2022/04/09 12:16:14;;;;;;;;;;;23.30;49.20;;;;;;5075111;28;19954;-44
2022/04/09 12:18:42;;;;;;;;;;;23.40;49.20;;;;;;5076055;28;20471;-44
2022/04/09 12:21:23;;;;;;;;;;;23.30;49.20;;;;;;5075726;28;19924;-44
2022/04/09 12:24:00;;;;;;;;;;;23.40;49.20;;;;;;5091033;28;19924;-46
2022/04/09 12:26:28;;;;;;;;;;;23.40;49.20;;;;;;5095762;28;19973;-45
2022/04/09 12:29:08;;;;;;;;;;;23.30;49.10;;;;;;5095451;28;19931;-45
2022/04/09 12:31:36;;;;;;;;;;;23.40;49.20;;;;;;5094718;28;19971;-44
2022/04/09 12:34:03;;;;;;;;;;;23.40;49.20;;;;;;5095887;28;19932;-45
2022/04/09 12:36:30;;;;;;;;;;;23.40;49.30;;;;;;5077626;28;19924;-45
2022/04/09 12:38:58;;;;;;;;;;;23.40;49.20;;;;;;5095764;28;19977;-43
2022/04/09 12:41:24;;;;;;;;;;;23.40;49.20;;;;;;5095410;28;19970;-44
2022/04/09 12:43:55;;;;;;;;;;;23.40;49.20;;;;;;5095666;28;19947;-44
2022/04/09 12:46:22;;;;;;;;;;;23.50;49.20;;;;;;5093710;28;20027;-47
2022/04/09 12:48:50;;;;;;;;;;;23.50;49.10;;;;;;5095632;28;19985;-45
2022/04/09 12:51:21;;;;;;;;;;;23.50;49.00;;;;;;5095169;28;20015;-44
2022/04/09 12:53:49;;;;;;;;;;;23.50;49.00;;;;;;5095283;28;19970;-44
2022/04/09 12:56:16;;;;;;;;;;;23.50;49.00;;;;;;5095178;28;19924;-43
2022/04/09 12:58:44;;;;;;;;;;;23.50;49.00;;;;;;5095487;28;20291;-44
2022/04/09 13:01:13;;;;;;;;;;;23.60;49.00;;;;;;5094159;28;19978;-45
2022/04/09 13:03:41;;;;;;;;;;;23.60;48.80;;;;;;5095003;28;19928;-44
2022/04/09 13:06:08;;;;;;;;;;;23.70;48.80;;;;;;5077128;28;19973;-44
2022/04/09 13:08:35;;;;;;;;;;;23.70;48.80;;;;;;5094931;28;19928;-45
2022/04/09 13:11:04;;;;;;;;;;;23.60;48.70;;;;;;5094799;28;19971;-46
2022/04/09 13:13:31;;;;;;;;;;;23.60;48.80;;;;;;5077206;28;20361;-44
2022/04/09 13:15:58;;;;;;;;;;;23.60;48.80;;;;;;5094181;28;19950;-44
2022/04/09 13:18:25;;;;;;;;;;;23.60;48.90;;;;;;5094769;28;20024;-44
2022/04/09 13:20:52;;;;;;;;;;;23.60;48.90;;;;;;5094612;28;19928;-47
2022/04/09 13:23:19;;;;;;;;;;;23.50;48.90;;;;;;5094429;28;19925;-44
2022/04/09 13:25:46;;;;;;;;;;;23.50;49.00;;;;;;5094646;28;20377;-44
2022/04/09 13:28:14;;;;;;;;;;;23.50;49.00;;;;;;5094909;28;20034;-46
2022/04/09 13:30:44;;;;;;;;;;;23.50;49.00;;;;;;5093888;28;19935;-43
2022/04/09 13:33:11;;;;;;;;;;;23.50;49.10;;;;;;5094829;28;19959;-44
2022/04/09 13:35:40;;;;;;;;;;;23.50;49.10;;;;;;5094469;28;19971;-45
2022/04/09 13:38:07;;;;;;;;;;;23.50;49.00;;;;;;5094385;28;19969;-44
2022/04/09 13:40:34;;;;;;;;;;;23.50;49.00;;;;;;5094287;28;19925;-45
2022/04/09 13:43:01;;;;;;;;;;;23.50;48.90;;;;;;5094556;28;20003;-44
2022/04/09 13:45:28;;;;;;;;;;;23.60;49.00;;;;;;5093670;28;19924;-44
2022/04/09 13:47:55;;;;;;;;;;;23.60;48.90;;;;;;5094110;28;20010;-45
2022/04/09 13:50:22;;;;;;;;;;;23.60;48.90;;;;;;5094104;28;19928;-46
2022/04/09 13:52:50;;;;;;;;;;;23.60;48.90;;;;;;5094478;28;20330;-43
2022/04/09 13:55:17;;;;;;;;;;;23.60;48.80;;;;;;5094145;28;19924;-44
2022/04/09 13:57:43;;;;;;;;;;;23.60;48.90;;;;;;5094160;28;19963;-45
2022/04/09 14:00:11;;;;;;;;;;;23.60;48.80;;;;;;5094353;28;19928;-44
2022/04/09 14:02:39;;;;;;;;;;;23.70;48.80;;;;;;5093106;28;19924;-47
2022/04/09 14:05:07;;;;;;;;;;;23.70;48.70;;;;;;5094220;28;20291;-44
2022/04/09 14:07:34;;;;;;;;;;;23.70;48.60;;;;;;5093854;28;19924;-45
2022/04/09 14:10:01;;;;;;;;;;;23.70;48.60;;;;;;5094152;28;20322;-47
2022/04/09 14:12:31;;;;;;;;;;;23.70;48.60;;;;;;5093914;28;20392;-46
2022/04/09 14:14:58;;;;;;;;;;;23.70;48.60;;;;;;5094200;28;20343;-45
2022/04/09 14:17:25;;;;;;;;;;;23.70;48.50;;;;;;5093279;28;20031;-46
2022/04/09 14:19:52;;;;;;;;;;;23.80;48.60;;;;;;5094048;28;20343;-44
2022/04/09 14:22:20;;;;;;;;;;;23.80;48.60;;;;;;5093804;28;19924;-50